Terminal Aerodrome Forecast
Issued by NWS Upton, NY

Home | Current Version | Previous Version | Text Only | Print | Product List | Glossary On
Versions: 1 2 3 4 5 6 7 8 9 10 11 12 13 14 15 16 17 18 19 20 21 22 23 24 25 26 27 28 29 30 31 32 33 34 35 36
165
FTUS41 KOKX 182322
TAFBDR
TAF
KBDR 182322Z 1900/1924 35006KT P6SM OVC030
     FM190500 33004KT P6SM SCT030 BKN050
     FM191300 31007KT P6SM SCT030=

USA.gov is the U.S. government's official web portal to all federal, state and local government web resources and services.